createdAt,value
2023-03-06T00:06:10.922Z,45.28
2023-03-06T00:09:15.048Z,45.48
2023-03-06T00:12:21.782Z,45.61
2023-03-06T00:15:27.980Z,44.96
2023-03-06T00:18:34.051Z,45.61
2023-03-06T00:21:45.701Z,45.38
2023-03-06T00:24:49.864Z,45.12
2023-03-06T00:27:54.159Z,45.44
2023-03-06T00:30:58.641Z,43.65
2023-03-06T00:34:02.456Z,44.80
2023-03-06T00:37:06.518Z,45.39
2023-03-06T00:43:30.860Z,45.58
2023-03-06T00:46:34.560Z,46.01
2023-03-06T00:49:38.970Z,45.17
2023-03-06T00:52:43.717Z,44.91
2023-03-06T00:55:50.647Z,44.80
2023-03-06T00:58:59.232Z,44.44
2023-03-06T01:05:27.598Z,44.33
2023-03-06T01:08:31.830Z,45.51
2023-03-06T01:11:35.630Z,44.88
2023-03-06T01:14:40.012Z,44.35
2023-03-06T01:17:45.209Z,44.78
2023-03-06T01:24:26.069Z,44.62
2023-03-06T01:27:30.491Z,43.26
2023-03-06T01:33:56.569Z,43.65
2023-03-06T01:37:01.826Z,45.38
2023-03-06T01:40:05.725Z,45.38
2023-03-06T01:43:10.410Z,43.72
2023-03-06T01:46:14.516Z,44.61
2023-03-06T01:49:18.714Z,44.02
2023-03-06T01:52:27.008Z,43.96
2023-03-06T01:55:34.545Z,43.23
2023-03-06T02:02:04.003Z,43.41
2023-03-06T02:05:15.760Z,43.36
2023-03-06T02:08:20.937Z,43.69
2023-03-06T02:11:33.216Z,44.59
2023-03-06T02:14:37.491Z,45.15
2023-03-06T02:17:50.759Z,45.58
2023-03-06T02:20:56.389Z,44.37
2023-03-06T02:24:00.419Z,44.76
2023-03-06T02:27:11.898Z,45.29
2023-03-06T02:30:16.135Z,46.25
2023-03-06T02:33:20.293Z,46.81
2023-03-06T02:36:24.552Z,46.17
2023-03-06T02:39:40.426Z,45.71
2023-03-06T02:42:44.791Z,45.40
2023-03-06T02:45:49.664Z,45.20
2023-03-06T02:48:55.558Z,44.72
2023-03-06T02:52:01.161Z,44.96
2023-03-06T02:55:05.414Z,44.63
2023-03-06T02:58:10.741Z,44.14
2023-03-06T03:01:16.305Z,45.33
2023-03-06T03:04:24.132Z,44.41
2023-03-06T03:07:28.245Z,44.93
2023-03-06T03:10:32.342Z,45.21
2023-03-06T03:13:40.030Z,44.75
2023-03-06T03:16:44.357Z,44.33
2023-03-06T03:19:49.620Z,44.63
2023-03-06T03:23:02.510Z,43.95
2023-03-06T03:26:07.985Z,44.72
2023-03-06T03:29:14.542Z,43.85
2023-03-06T03:32:31.782Z,43.70
2023-03-06T03:35:39.555Z,44.23
2023-03-06T03:39:08.560Z,44.03
2023-03-06T03:42:14.491Z,44.90
2023-03-06T03:45:20.454Z,44.59
2023-03-06T03:51:40.894Z,44.04
2023-03-06T03:54:46.562Z,42.91
2023-03-06T03:57:52.276Z,44.33
2023-03-06T04:04:08.907Z,44.76
2023-03-06T04:10:51.238Z,42.32
2023-03-06T04:13:59.974Z,42.36
2023-03-06T04:17:05.320Z,43.21
2023-03-06T04:20:09.353Z,44.38
2023-03-06T04:26:37.465Z,43.32
2023-03-06T04:29:41.767Z,42.74
2023-03-06T04:36:09.860Z,44.28
2023-03-06T04:39:14.468Z,43.53
2023-03-06T04:42:21.388Z,42.32
2023-03-06T04:45:26.065Z,43.73
2023-03-06T04:48:29.988Z,43.18
2023-03-06T04:51:36.874Z,42.41
2023-03-06T04:54:46.473Z,44.25
2023-03-06T04:57:50.811Z,44.65
2023-03-06T05:00:55.266Z,45.82
2023-03-06T05:04:06.733Z,45.85
2023-03-06T05:07:12.819Z,46.03
2023-03-06T05:10:19.521Z,46.38
2023-03-06T05:13:23.880Z,45.95
2023-03-06T05:16:28.081Z,46.03
2023-03-06T05:19:37.450Z,46.02
2023-03-06T05:26:09.932Z,46.08
2023-03-06T05:29:14.651Z,46.84
2023-03-06T05:35:42.921Z,47.10
2023-03-06T05:38:51.362Z,46.39
2023-03-06T05:41:56.177Z,46.05
2023-03-06T05:48:48.937Z,47.89
2023-03-06T05:51:54.785Z,46.43
2023-03-06T05:55:02.494Z,46.30
2023-03-06T05:58:06.813Z,45.89
2023-03-06T06:01:10.966Z,46.05
2023-03-06T06:04:14.860Z,46.12
2023-03-06T06:07:18.718Z,47.22
2023-03-06T06:10:22.673Z,47.56
2023-03-06T06:13:34.510Z,45.65
2023-03-06T06:16:38.824Z,44.70
2023-03-06T06:19:42.770Z,45.34
2023-03-06T06:22:46.946Z,44.24
2023-03-06T06:25:51.004Z,44.69
2023-03-06T06:28:55.321Z,45.64
2023-03-06T06:32:03.499Z,43.92
2023-03-06T06:35:18.962Z,45.40
2023-03-06T06:38:25.406Z,44.73
2023-03-06T06:41:53.671Z,43.36
2023-03-06T06:45:48.376Z,42.91
2023-03-06T06:54:42.393Z,42.08
2023-03-06T07:01:15.299Z,41.98
2023-03-06T07:07:41.958Z,40.90
2023-03-06T07:10:46.425Z,42.20
2023-03-06T07:13:50.734Z,41.54
2023-03-06T07:16:55.649Z,43.30
2023-03-06T07:20:01.766Z,43.26
2023-03-06T07:23:05.811Z,43.51
2023-03-06T07:26:10.702Z,43.25
2023-03-06T07:29:15.076Z,43.51
2023-03-06T07:32:20.935Z,43.09
2023-03-06T07:35:24.809Z,42.87
2023-03-06T07:38:28.818Z,43.21
2023-03-06T07:41:32.914Z,42.71
2023-03-06T07:44:37.127Z,41.02
2023-03-06T07:47:41.745Z,40.47
2023-03-06T07:50:45.769Z,41.33
2023-03-06T07:53:50.480Z,42.22
2023-03-06T07:56:55.788Z,41.35
2023-03-06T07:59:59.948Z,41.33
2023-03-06T08:03:05.643Z,41.29
2023-03-06T08:06:09.818Z,41.29
2023-03-06T08:09:13.550Z,41.37
2023-03-06T08:12:18.719Z,39.92
2023-03-06T08:15:23.024Z,40.41
2023-03-06T08:18:32.726Z,42.72
2023-03-06T08:21:38.234Z,44.21
2023-03-06T08:24:42.629Z,40.69
2023-03-06T08:27:46.594Z,40.39
2023-03-06T08:30:51.812Z,40.26
2023-03-06T08:33:56.044Z,40.72
2023-03-06T08:37:00.110Z,41.76
2023-03-06T08:40:06.308Z,41.87
2023-03-06T08:43:11.829Z,42.05
2023-03-06T08:46:17.566Z,42.12
2023-03-06T08:49:21.379Z,41.76
2023-03-06T08:52:25.308Z,41.67
2023-03-06T08:55:29.860Z,42.48
2023-03-06T08:58:34.036Z,42.64
2023-03-06T09:01:38.143Z,40.89
2023-03-06T09:04:42.235Z,40.85
2023-03-06T09:07:45.972Z,40.24
2023-03-06T09:10:50.582Z,41.25
2023-03-06T09:13:55.335Z,42.79
2023-03-06T09:16:59.118Z,48.98
2023-03-06T09:20:03.414Z,41.16
2023-03-06T09:23:07.715Z,41.66
2023-03-06T09:26:12.231Z,41.08
2023-03-06T09:29:16.410Z,40.66
2023-03-06T09:32:20.738Z,40.09
2023-03-06T09:35:24.612Z,39.48
2023-03-06T09:38:29.179Z,38.72
2023-03-06T09:41:33.494Z,39.61
2023-03-06T09:44:37.368Z,39.57
2023-03-06T09:47:41.262Z,39.71
2023-03-06T09:50:45.269Z,40.14
2023-03-06T09:53:49.776Z,39.86
2023-03-06T09:56:58.636Z,39.48
2023-03-06T10:00:04.495Z,40.02
2023-03-06T10:03:11.013Z,40.01
2023-03-06T10:06:15.211Z,41.03
2023-03-06T10:09:20.060Z,40.77
2023-03-06T10:12:25.202Z,41.28
2023-03-06T10:15:29.462Z,41.22
2023-03-06T10:18:34.525Z,39.78
2023-03-06T10:21:38.851Z,41.23
2023-03-06T10:24:42.803Z,41.29
2023-03-06T10:27:47.916Z,41.86
2023-03-06T10:30:51.980Z,41.30
2023-03-06T10:33:56.078Z,41.42
2023-03-06T10:37:00.140Z,41.80
2023-03-06T10:40:03.867Z,40.61
2023-03-06T10:43:11.785Z,39.89
2023-03-06T10:46:17.280Z,40.57
2023-03-06T10:49:22.486Z,40.05
2023-03-06T10:52:26.885Z,39.98
2023-03-06T10:55:31.206Z,40.46
2023-03-06T10:58:35.278Z,41.37
2023-03-06T11:01:39.202Z,41.49
2023-03-06T11:04:43.117Z,40.51
2023-03-06T11:07:47.396Z,42.05
2023-03-06T11:10:51.596Z,41.44
2023-03-06T11:13:55.686Z,41.91
2023-03-06T11:16:59.629Z,41.39
2023-03-06T11:20:04.025Z,41.66
2023-03-06T11:23:08.085Z,41.66
2023-03-06T11:26:12.182Z,41.64
2023-03-06T11:29:16.179Z,41.59
2023-03-06T11:32:19.968Z,41.74
2023-03-06T11:35:23.939Z,40.38
2023-03-06T11:38:28.351Z,41.15
2023-03-06T11:41:32.385Z,41.08
2023-03-06T11:44:36.229Z,40.43
2023-03-06T11:47:40.146Z,40.70
2023-03-06T11:50:44.372Z,39.21
2023-03-06T11:53:48.676Z,39.45
2023-03-06T11:56:52.955Z,39.46
2023-03-06T11:59:56.869Z,38.76
2023-03-06T12:03:00.712Z,39.62
2023-03-06T12:06:05.136Z,38.81
2023-03-06T12:09:09.133Z,39.29
2023-03-06T12:12:13.063Z,39.57
2023-03-06T12:15:16.943Z,38.95
2023-03-06T12:18:20.766Z,37.87
2023-03-06T12:21:24.891Z,38.16
2023-03-06T12:24:28.856Z,37.98
2023-03-06T12:27:32.628Z,38.36
2023-03-06T12:30:36.754Z,39.35
2023-03-06T12:33:40.983Z,38.92
2023-03-06T12:36:45.236Z,36.95
2023-03-06T12:39:51.433Z,38.63
2023-03-06T12:42:55.532Z,36.66
2023-03-06T12:45:59.441Z,36.86
2023-03-06T12:49:03.415Z,37.61
2023-03-06T12:52:07.374Z,38.34
2023-03-06T12:55:11.194Z,37.01
2023-03-06T12:58:15.272Z,37.10
2023-03-06T13:01:19.595Z,35.88
2023-03-06T13:04:23.675Z,36.71
2023-03-06T13:07:27.814Z,35.27
2023-03-06T13:10:31.682Z,36.75
2023-03-06T13:13:35.607Z,35.66
2023-03-06T13:16:39.758Z,36.49
2023-03-06T13:19:43.748Z,36.15
2023-03-06T13:22:51.261Z,35.14
2023-03-06T13:25:55.130Z,36.33
2023-03-06T13:28:58.966Z,35.95
2023-03-06T13:32:02.932Z,36.35
2023-03-06T13:35:07.455Z,37.11
2023-03-06T13:38:11.475Z,37.34
2023-03-06T13:41:15.399Z,36.89
2023-03-06T13:44:19.431Z,36.66
2023-03-06T13:47:23.463Z,37.13
2023-03-06T13:50:27.773Z,35.71
2023-03-06T13:53:32.835Z,35.45
2023-03-06T13:56:36.731Z,36.52
2023-03-06T13:59:40.677Z,37.46
2023-03-06T14:02:44.804Z,35.31
2023-03-06T14:05:48.825Z,34.91
2023-03-06T14:08:53.150Z,31.86
2023-03-06T14:11:57.082Z,32.17
2023-03-06T14:15:03.281Z,32.84
2023-03-06T14:18:07.154Z,35.98
2023-03-06T14:21:11.093Z,36.71
2023-03-06T14:24:15.111Z,36.36
2023-03-06T14:27:19.048Z,36.13
2023-03-06T14:30:25.281Z,37.63
2023-03-06T14:33:32.601Z,36.56
2023-03-06T14:36:36.405Z,37.65
2023-03-06T14:39:40.555Z,36.03
2023-03-06T14:42:44.685Z,37.45
2023-03-06T14:45:48.651Z,34.69
2023-03-06T14:48:52.922Z,35.38
2023-03-06T14:51:57.228Z,36.16
2023-03-06T14:55:01.424Z,34.98
2023-03-06T14:58:05.339Z,32.57
2023-03-06T15:01:09.311Z,31.09
2023-03-06T15:04:13.722Z,27.54
2023-03-06T15:07:17.748Z,25.09
2023-03-06T15:10:22.328Z,25.37
2023-03-06T15:13:26.168Z,27.12
2023-03-06T15:16:31.421Z,28.34
2023-03-06T15:19:35.787Z,29.40
2023-03-06T15:22:39.729Z,27.42
2023-03-06T15:25:43.710Z,24.26
2023-03-06T15:28:47.632Z,29.51
2023-03-06T15:31:52.674Z,31.61
2023-03-06T15:34:56.777Z,32.44
2023-03-06T15:38:00.891Z,31.05
2023-03-06T15:41:05.070Z,30.57
2023-03-06T15:44:08.921Z,27.27
2023-03-06T15:47:13.029Z,22.30
2023-03-06T15:50:19.713Z,22.29
2023-03-06T15:53:23.952Z,20.08
2023-03-06T15:56:28.160Z,18.68
2023-03-06T15:59:31.774Z,19.08
2023-03-06T16:02:35.946Z,17.64
2023-03-06T16:05:39.835Z,17.42
2023-03-06T16:08:43.764Z,16.81
2023-03-06T16:11:47.928Z,17.28
2023-03-06T16:14:53.354Z,16.38
2023-03-06T16:17:57.583Z,15.98
2023-03-06T16:21:02.521Z,16.01
2023-03-06T16:24:06.418Z,15.78
2023-03-06T16:27:10.625Z,21.73
2023-03-06T16:30:14.937Z,24.94
2023-03-06T16:33:18.870Z,20.59
2023-03-06T16:36:23.160Z,20.74
2023-03-06T16:39:27.429Z,20.15
2023-03-06T16:42:31.385Z,18.78
2023-03-06T16:45:35.689Z,19.02
2023-03-06T16:48:39.558Z,18.97
2023-03-06T16:51:44.131Z,18.10
2023-03-06T16:54:49.256Z,17.92
2023-03-06T16:57:53.612Z,17.90
2023-03-06T17:00:57.616Z,17.21
2023-03-06T17:04:01.677Z,15.83
2023-03-06T17:07:05.965Z,11.55
2023-03-06T17:10:09.822Z,10.69
2023-03-06T17:13:13.463Z,10.56
2023-03-06T17:16:17.324Z,10.92
2023-03-06T17:19:24.429Z,10.85
2023-03-06T17:22:28.176Z,10.79
2023-03-06T17:25:32.377Z,11.23
2023-03-06T17:28:36.299Z,11.19
2023-03-06T17:31:40.382Z,12.42
2023-03-06T17:34:44.359Z,11.58
2023-03-06T17:37:48.931Z,11.74
2023-03-06T17:40:52.820Z,11.30
2023-03-06T17:43:57.719Z,11.37
2023-03-06T17:47:01.822Z,11.32
2023-03-06T17:50:05.942Z,11.67
2023-03-06T17:53:10.121Z,11.15
2023-03-06T17:56:14.002Z,10.82
2023-03-06T17:59:17.861Z,10.84
2023-03-06T18:02:21.687Z,10.49
2023-03-06T18:05:25.863Z,11.09
2023-03-06T18:08:30.101Z,10.68
2023-03-06T18:11:38.438Z,11.27
2023-03-06T18:14:43.930Z,11.29
2023-03-06T18:17:47.797Z,10.78
2023-03-06T18:20:51.947Z,10.75
2023-03-06T18:23:56.196Z,11.20
2023-03-06T18:27:00.507Z,10.78
2023-03-06T18:30:04.783Z,10.29
2023-03-06T18:36:30.703Z,10.12
2023-03-06T18:39:34.478Z,10.57
2023-03-06T18:42:38.284Z,10.38
2023-03-06T18:45:42.565Z,10.21
2023-03-06T18:48:46.589Z,10.68
2023-03-06T18:51:51.073Z,10.82
2023-03-06T18:54:55.412Z,10.56
2023-03-06T18:57:59.709Z,11.16
2023-03-06T19:01:03.993Z,10.81
2023-03-06T19:04:07.840Z,10.74
2023-03-06T19:07:11.711Z,10.81
2023-03-06T19:10:16.144Z,11.38
2023-03-06T19:13:19.964Z,12.03
2023-03-06T19:16:24.203Z,12.40
2023-03-06T19:19:29.349Z,11.28
2023-03-06T19:22:33.141Z,12.04
2023-03-06T19:25:37.287Z,11.43
2023-03-06T19:28:41.655Z,11.72
2023-03-06T19:31:45.738Z,12.24
2023-03-06T19:34:51.070Z,11.99
2023-03-06T19:37:54.941Z,12.00
2023-03-06T19:40:58.886Z,12.27
2023-03-06T19:44:03.348Z,12.88
2023-03-06T19:47:07.191Z,12.90
2023-03-06T19:50:11.000Z,12.79
2023-03-06T19:53:15.453Z,13.47
2023-03-06T19:56:19.841Z,12.82
2023-03-06T19:59:23.782Z,13.17
2023-03-06T20:02:27.553Z,13.13
2023-03-06T20:05:33.253Z,13.49
2023-03-06T20:08:37.350Z,13.37
2023-03-06T20:15:04.012Z,13.09
2023-03-06T20:18:08.432Z,12.56
2023-03-06T20:21:12.410Z,13.73
2023-03-06T20:24:16.739Z,13.39
2023-03-06T20:27:20.871Z,13.74
2023-03-06T20:30:26.442Z,13.67
2023-03-06T20:33:33.615Z,13.32
2023-03-06T20:36:37.739Z,13.78
2023-03-06T20:39:41.815Z,13.57
2023-03-06T20:42:47.456Z,13.76
2023-03-06T20:45:51.431Z,13.71
2023-03-06T20:48:55.789Z,13.95
2023-03-06T20:52:00.101Z,14.50
2023-03-06T20:55:04.188Z,14.66
2023-03-06T20:58:08.279Z,14.63
2023-03-06T21:01:12.168Z,15.10
2023-03-06T21:04:16.496Z,15.19
2023-03-06T21:07:31.612Z,14.54
2023-03-06T21:10:37.842Z,14.86
2023-03-06T21:13:41.990Z,14.62
2023-03-06T21:16:45.916Z,14.85
2023-03-06T21:19:49.887Z,14.99
2023-03-06T21:22:53.663Z,14.81
2023-03-06T21:25:58.044Z,14.76
2023-03-06T21:29:02.076Z,14.65
2023-03-06T21:32:06.036Z,14.56
2023-03-06T21:35:10.125Z,14.56
2023-03-06T21:38:14.113Z,14.54
2023-03-06T21:41:18.476Z,14.72
2023-03-06T21:44:22.355Z,14.02
2023-03-06T21:47:26.505Z,14.75
2023-03-06T21:53:53.166Z,14.16
2023-03-06T21:56:57.607Z,14.30
2023-03-06T22:00:01.790Z,13.90
2023-03-06T22:03:06.036Z,14.08
2023-03-06T22:09:31.821Z,14.45
2023-03-06T22:12:35.961Z,14.45
2023-03-06T22:15:40.090Z,14.14
2023-03-06T22:18:44.126Z,14.07
2023-03-06T22:21:48.098Z,13.99
2023-03-06T22:24:51.976Z,14.19
2023-03-06T22:27:56.049Z,14.15
2023-03-06T22:31:00.117Z,14.91
2023-03-06T22:34:04.048Z,14.01
2023-03-06T22:37:07.772Z,14.73
2023-03-06T22:40:12.986Z,14.49
2023-03-06T22:43:17.004Z,13.70
2023-03-06T22:46:20.626Z,14.07
2023-03-06T22:49:24.646Z,14.66
2023-03-06T22:52:28.660Z,14.49
2023-03-06T22:55:32.476Z,14.32
2023-03-06T22:58:39.513Z,14.08
2023-03-06T23:01:43.669Z,13.79
2023-03-06T23:04:47.841Z,14.01
2023-03-06T23:07:51.632Z,13.78
2023-03-06T23:10:55.627Z,14.00
2023-03-06T23:13:59.961Z,13.86
2023-03-06T23:17:04.091Z,13.64
2023-03-06T23:20:07.981Z,13.70
2023-03-06T23:23:12.257Z,13.66
2023-03-06T23:26:16.175Z,13.61
2023-03-06T23:29:20.448Z,13.81
2023-03-06T23:32:24.408Z,13.29
2023-03-06T23:35:28.418Z,13.51
2023-03-06T23:38:32.547Z,13.07
2023-03-06T23:41:36.695Z,12.72
2023-03-06T23:44:41.001Z,13.51
2023-03-06T23:47:44.906Z,12.82
2023-03-06T23:50:50.662Z,13.48
2023-03-06T23:53:54.858Z,13.16
2023-03-06T23:56:58.797Z,13.29
